Time;durP1;ratioP1;P1;durP2;ratioP2;P2;SDS_P1;SDS_P2;PMS_P1;PMS_P2;Temp;Humidity;BMP_temperature;BMP_pressure;BME280_temperature;BME280_humidity;BME280_pressure;Samples;Min_cycle;Max_cycle;Signal;HPM_P1;HPM_P2
2023/09/26 00:00:20;;;;;;;10.05;8.35;;;;;;;;;;4997972;28;20064;-80
2023/09/26 00:02:46;;;;;;;9.68;8.00;;;;;;;;;;4991749;28;20050;-80
2023/09/26 00:05:12;;;;;;;10.07;8.00;;;;;;;;;;4991175;28;20051;-78
2023/09/26 00:07:38;;;;;;;10.63;8.65;;;;;;;;;;4989554;28;20035;-79
2023/09/26 00:10:05;;;;;;;11.63;8.52;;;;;;;;;;5001859;28;20116;-79
2023/09/26 00:12:31;;;;;;;10.73;8.15;;;;;;;;;;4980923;28;20050;-79
2023/09/26 00:14:57;;;;;;;9.43;8.02;;;;;;;;;;4999238;28;20041;-79
2023/09/26 00:17:22;;;;;;;10.25;7.97;;;;;;;;;;5001744;28;20429;-79
2023/09/26 00:19:58;;;;;;;12.65;8.50;;;;;;;;;;4981392;28;20069;-79
2023/09/26 00:22:24;;;;;;;10.50;8.35;;;;;;;;;;4971201;28;20042;-79
2023/09/26 00:24:51;;;;;;;10.77;8.38;;;;;;;;;;4987799;28;20415;-78
2023/09/26 00:27:17;;;;;;;10.93;8.95;;;;;;;;;;4984366;28;20050;-80
2023/09/26 00:29:44;;;;;;;10.55;8.27;;;;;;;;;;4983194;28;20508;-77
2023/09/26 00:32:09;;;;;;;11.13;8.82;;;;;;;;;;4983159;28;20037;-77
2023/09/26 00:34:35;;;;;;;10.27;8.20;;;;;;;;;;4971214;28;20505;-77
2023/09/26 00:37:00;;;;;;;11.27;8.18;;;;;;;;;;4985062;28;20029;-79
2023/09/26 00:39:26;;;;;;;11.80;8.60;;;;;;;;;;4967789;28;20104;-79
2023/09/26 00:41:51;;;;;;;11.10;8.38;;;;;;;;;;4986356;28;20077;-79
2023/09/26 00:44:16;;;;;;;10.38;7.72;;;;;;;;;;4972364;28;20367;-80
2023/09/26 00:46:42;;;;;;;11.80;8.57;;;;;;;;;;4969278;28;20397;-80
2023/09/26 00:49:08;;;;;;;10.82;9.02;;;;;;;;;;4951607;28;20041;-80
2023/09/26 00:51:35;;;;;;;10.65;8.77;;;;;;;;;;4977735;28;20909;-79
2023/09/26 00:54:00;;;;;;;10.57;8.48;;;;;;;;;;4990594;28;20034;-80
2023/09/26 00:56:26;;;;;;;9.82;8.60;;;;;;;;;;4972521;28;20041;-79
2023/09/26 00:58:52;;;;;;;12.13;8.98;;;;;;;;;;4989532;28;20038;-80
2023/09/26 01:01:20;;;;;;;10.50;8.80;;;;;;;;;;4962191;28;20034;-80
2023/09/26 01:03:45;;;;;;;11.25;8.75;;;;;;;;;;4984464;28;20064;-79
2023/09/26 01:06:11;;;;;;;10.77;8.75;;;;;;;;;;4989824;28;20099;-80
2023/09/26 01:08:37;;;;;;;10.75;8.95;;;;;;;;;;4973116;28;20029;-80
2023/09/26 01:11:02;;;;;;;10.77;8.98;;;;;;;;;;4987625;28;20030;-79
2023/09/26 01:13:28;;;;;;;11.05;9.05;;;;;;;;;;4989061;28;20030;-80
2023/09/26 01:15:53;;;;;;;10.27;8.48;;;;;;;;;;4972751;28;20038;-80
2023/09/26 01:18:23;;;;;;;10.93;9.18;;;;;;;;;;4991005;28;20103;-80
2023/09/26 01:20:49;;;;;;;11.00;9.10;;;;;;;;;;4985983;28;20040;-80
2023/09/26 01:23:15;;;;;;;13.95;10.43;;;;;;;;;;4973724;28;20037;-79
2023/09/26 01:25:42;;;;;;;11.63;9.32;;;;;;;;;;4988631;28;20424;-78
2023/09/26 01:28:08;;;;;;;11.75;9.68;;;;;;;;;;4989712;28;20046;-80
2023/09/26 01:30:34;;;;;;;12.85;10.00;;;;;;;;;;4984309;28;20053;-80
2023/09/26 01:33:00;;;;;;;12.57;9.70;;;;;;;;;;4955768;28;20034;-78
2023/09/26 01:35:26;;;;;;;11.35;9.18;;;;;;;;;;4980918;28;20042;-80
2023/09/26 01:37:51;;;;;;;14.13;9.50;;;;;;;;;;4958875;28;20041;-79
2023/09/26 01:40:17;;;;;;;11.20;9.30;;;;;;;;;;4964318;28;20443;-80
2023/09/26 01:42:42;;;;;;;15.60;9.55;;;;;;;;;;4984532;28;20038;-80
2023/09/26 01:45:09;;;;;;;10.45;8.52;;;;;;;;;;4984893;28;20458;-80
2023/09/26 01:47:54;;;;;;;13.23;9.27;;;;;;;;;;4974947;28;20096;-80
2023/09/26 01:50:21;;;;;;;11.98;9.77;;;;;;;;;;4997544;28;20461;-79
2023/09/26 01:52:47;;;;;;;14.68;11.15;;;;;;;;;;5009169;28;20061;-81
2023/09/26 01:55:17;;;;;;;16.40;12.50;;;;;;;;;;4980008;28;20532;-80
2023/09/26 01:57:43;;;;;;;13.90;11.57;;;;;;;;;;4995148;28;20111;-80
2023/09/26 02:00:11;;;;;;;16.08;12.75;;;;;;;;;;4991976;28;20070;-80
2023/09/26 02:02:41;;;;;;;17.40;14.43;;;;;;;;;;4994253;28;20397;-80
2023/09/26 02:05:15;;;;;;;19.88;16.98;;;;;;;;;;4997462;28;20447;-80
2023/09/26 02:07:41;;;;;;;18.05;15.52;;;;;;;;;;5001724;28;20038;-79
2023/09/26 02:10:07;;;;;;;17.90;15.85;;;;;;;;;;4989541;28;20037;-80
2023/09/26 02:12:35;;;;;;;20.88;17.35;;;;;;;;;;4981800;28;20537;-79
2023/09/26 02:15:01;;;;;;;24.50;20.23;;;;;;;;;;4977710;28;20033;-80
2023/09/26 02:17:27;;;;;;;23.10;20.65;;;;;;;;;;4996621;28;20037;-80
2023/09/26 02:19:52;;;;;;;35.45;31.45;;;;;;;;;;4971937;28;20445;-79
2023/09/26 02:22:18;;;;;;;33.60;30.00;;;;;;;;;;4988173;28;20037;-81
2023/09/26 02:24:43;;;;;;;29.92;25.80;;;;;;;;;;4980406;28;20061;-78
2023/09/26 02:27:09;;;;;;;35.08;29.38;;;;;;;;;;4983470;28;20050;-80
2023/09/26 02:29:35;;;;;;;38.42;30.90;;;;;;;;;;4983588;28;20986;-79
2023/09/26 02:32:00;;;;;;;37.00;30.02;;;;;;;;;;4977572;28;20162;-79
2023/09/26 02:34:26;;;;;;;35.70;30.90;;;;;;;;;;4985268;28;20121;-80
2023/09/26 02:36:51;;;;;;;38.28;30.00;;;;;;;;;;4988908;28;20030;-80
2023/09/26 02:39:17;;;;;;;34.17;27.17;;;;;;;;;;4985522;28;20045;-80
2023/09/26 02:41:43;;;;;;;33.85;26.50;;;;;;;;;;4964915;28;20499;-80
2023/09/26 02:44:08;;;;;;;32.38;25.15;;;;;;;;;;4972637;28;20099;-80
2023/09/26 02:46:34;;;;;;;30.60;22.77;;;;;;;;;;4987281;28;20066;-80
2023/09/26 02:49:00;;;;;;;29.48;23.67;;;;;;;;;;4976300;28;20030;-80
2023/09/26 02:51:28;;;;;;;31.33;24.08;;;;;;;;;;4987284;28;20042;-80
2023/09/26 02:53:54;;;;;;;32.30;24.38;;;;;;;;;;4985326;28;20034;-80
2023/09/26 02:56:19;;;;;;;36.72;26.67;;;;;;;;;;4989946;28;20042;-80
2023/09/26 02:58:45;;;;;;;35.95;26.35;;;;;;;;;;4984261;28;20072;-80
2023/09/26 03:01:17;;;;;;;36.22;26.63;;;;;;;;;;4987102;28;20352;-80
2023/09/26 03:03:43;;;;;;;38.05;27.73;;;;;;;;;;4997424;28;20044;-80
2023/09/26 03:06:08;;;;;;;37.10;27.27;;;;;;;;;;4998407;28;20042;-80
2023/09/26 03:08:34;;;;;;;36.10;26.65;;;;;;;;;;4993669;28;20036;-80
2023/09/26 03:10:59;;;;;;;34.42;27.67;;;;;;;;;;4985506;28;20029;-80
2023/09/26 03:13:25;;;;;;;35.88;28.00;;;;;;;;;;4999456;28;20040;-80
2023/09/26 03:15:56;;;;;;;34.60;27.42;;;;;;;;;;4973236;28;20072;-80
2023/09/26 03:18:22;;;;;;;34.05;26.05;;;;;;;;;;4996996;28;20035;-80
2023/09/26 03:20:47;;;;;;;32.55;24.83;;;;;;;;;;4980733;28;20031;-80
2023/09/26 03:23:13;;;;;;;34.90;25.77;;;;;;;;;;4995593;28;20038;-79
2023/09/26 03:25:38;;;;;;;32.60;25.20;;;;;;;;;;4990421;28;20034;-80
2023/09/26 03:28:05;;;;;;;30.13;24.05;;;;;;;;;;4994174;28;20050;-80
2023/09/26 03:30:34;;;;;;;30.02;22.60;;;;;;;;;;5003904;28;20504;-80
2023/09/26 03:32:59;;;;;;;29.95;22.90;;;;;;;;;;5004785;28;20397;-81
2023/09/26 03:35:25;;;;;;;30.20;22.23;;;;;;;;;;5008480;28;20037;-79
2023/09/26 03:37:50;;;;;;;26.60;19.55;;;;;;;;;;4994961;28;20038;-79
2023/09/26 03:40:15;;;;;;;22.30;17.15;;;;;;;;;;5002726;28;20062;-79
2023/09/26 03:42:41;;;;;;;20.17;15.85;;;;;;;;;;5008367;28;20517;-80
2023/09/26 03:45:07;;;;;;;22.05;16.55;;;;;;;;;;5005814;28;20040;-79
2023/09/26 03:47:33;;;;;;;19.67;15.65;;;;;;;;;;5002556;28;20441;-80
2023/09/26 03:49:59;;;;;;;19.17;15.10;;;;;;;;;;4991105;28;20026;-79
2023/09/26 03:52:24;;;;;;;20.65;15.10;;;;;;;;;;4991222;28;20037;-80
2023/09/26 03:54:49;;;;;;;16.17;13.38;;;;;;;;;;5000272;28;20042;-80
2023/09/26 03:57:15;;;;;;;18.92;14.60;;;;;;;;;;5003717;28;20045;-79
2023/09/26 03:59:41;;;;;;;18.73;13.70;;;;;;;;;;4996442;28;20038;-80
2023/09/26 04:02:07;;;;;;;18.17;14.18;;;;;;;;;;4992011;28;20587;-79
2023/09/26 04:04:33;;;;;;;16.60;13.40;;;;;;;;;;4992993;28;20051;-85
2023/09/26 04:06:59;;;;;;;15.52;13.25;;;;;;;;;;4986153;28;20038;-80
2023/09/26 04:09:24;;;;;;;17.40;13.65;;;;;;;;;;4990302;28;20828;-81
2023/09/26 04:11:49;;;;;;;17.80;13.73;;;;;;;;;;5010039;28;20037;-81
2023/09/26 04:14:15;;;;;;;18.20;14.13;;;;;;;;;;5008014;28;20569;-82
2023/09/26 04:16:40;;;;;;;16.17;12.93;;;;;;;;;;5009910;28;20040;-80
2023/09/26 04:19:05;;;;;;;17.35;12.95;;;;;;;;;;5003546;28;20042;-80
2023/09/26 04:21:31;;;;;;;15.63;12.93;;;;;;;;;;5004347;28;20397;-80
2023/09/26 04:23:59;;;;;;;14.52;12.55;;;;;;;;;;4990899;28;20034;-81
2023/09/26 04:26:25;;;;;;;16.83;13.60;;;;;;;;;;5003795;28;20030;-81
2023/09/26 04:28:50;;;;;;;17.38;13.57;;;;;;;;;;4982950;28;20042;-81
2023/09/26 04:31:17;;;;;;;16.92;13.68;;;;;;;;;;5000140;28;20362;-80
2023/09/26 04:33:47;;;;;;;17.15;14.15;;;;;;;;;;4986164;28;20034;-79
2023/09/26 04:36:12;;;;;;;18.40;14.73;;;;;;;;;;5005932;28;20041;-79
2023/09/26 04:38:38;;;;;;;17.10;14.63;;;;;;;;;;5007195;28;20379;-79
2023/09/26 04:41:04;;;;;;;21.13;14.45;;;;;;;;;;4987830;28;20409;-79
2023/09/26 04:43:30;;;;;;;18.15;14.65;;;;;;;;;;4990245;28;20518;-79
2023/09/26 04:45:56;;;;;;;17.92;14.45;;;;;;;;;;5001598;28;20030;-79
2023/09/26 04:48:21;;;;;;;20.30;15.18;;;;;;;;;;4990141;28;20061;-80
2023/09/26 04:50:49;;;;;;;17.88;14.40;;;;;;;;;;4993482;28;20049;-79
2023/09/26 04:53:14;;;;;;;17.92;14.10;;;;;;;;;;4986709;28;20427;-79
2023/09/26 04:55:41;;;;;;;17.92;15.20;;;;;;;;;;4989384;28;20033;-79
2023/09/26 04:58:06;;;;;;;17.83;14.95;;;;;;;;;;4989458;28;20049;-80
2023/09/26 05:00:32;;;;;;;17.65;14.48;;;;;;;;;;4989413;28;20107;-80
2023/09/26 05:02:57;;;;;;;18.35;14.68;;;;;;;;;;4996109;28;20464;-79
2023/09/26 05:05:24;;;;;;;20.08;15.43;;;;;;;;;;5006859;28;20041;-80
2023/09/26 05:07:49;;;;;;;20.10;15.27;;;;;;;;;;4987289;28;20046;-80
2023/09/26 05:10:16;;;;;;;19.73;15.10;;;;;;;;;;4993137;28;20038;-79
2023/09/26 05:12:41;;;;;;;20.08;15.80;;;;;;;;;;4986522;28;20906;-80
2023/09/26 05:15:12;;;;;;;18.48;15.38;;;;;;;;;;4990701;28;20119;-80
2023/09/26 05:17:42;;;;;;;19.45;15.63;;;;;;;;;;5004869;28;20117;-80
2023/09/26 05:20:10;;;;;;;19.73;14.90;;;;;;;;;;5005185;28;20049;-80
2023/09/26 05:22:40;;;;;;;17.10;14.52;;;;;;;;;;4996762;28;20183;-79
2023/09/26 05:25:05;;;;;;;19.73;14.98;;;;;;;;;;4985433;28;20037;-79
2023/09/26 05:27:31;;;;;;;17.25;14.98;;;;;;;;;;4988531;28;20100;-79
2023/09/26 05:29:59;;;;;;;19.52;14.90;;;;;;;;;;4988806;28;20402;-80
2023/09/26 05:32:24;;;;;;;20.73;16.15;;;;;;;;;;4977604;28;20399;-80
2023/09/26 05:34:50;;;;;;;20.83;15.40;;;;;;;;;;4967139;28;20038;-79
2023/09/26 05:37:15;;;;;;;21.20;15.88;;;;;;;;;;4971108;28;20696;-79
2023/09/26 05:39:43;;;;;;;20.13;15.73;;;;;;;;;;4985868;28;20062;-79
2023/09/26 05:42:10;;;;;;;21.42;16.40;;;;;;;;;;4997682;28;20179;-80
2023/09/26 05:44:36;;;;;;;21.02;16.92;;;;;;;;;;4994010;28;20042;-79
2023/09/26 05:47:02;;;;;;;21.70;16.00;;;;;;;;;;4998527;28;20603;-80
2023/09/26 05:49:28;;;;;;;21.58;15.80;;;;;;;;;;4977985;28;20038;-79
2023/09/26 05:51:53;;;;;;;20.90;16.17;;;;;;;;;;4991238;28;20081;-80
2023/09/26 05:54:18;;;;;;;20.42;16.40;;;;;;;;;;4981827;28;20056;-79
2023/09/26 05:57:02;;;;;;;20.90;16.15;;;;;;;;;;4969300;28;20065;-79
2023/09/26 05:59:28;;;;;;;22.48;17.10;;;;;;;;;;4982167;28;20106;-80
2023/09/26 06:01:54;;;;;;;21.95;16.05;;;;;;;;;;4980181;28;20427;-81
2023/09/26 06:04:19;;;;;;;21.00;16.58;;;;;;;;;;4983108;28;20049;-80
2023/09/26 06:06:45;;;;;;;21.98;16.38;;;;;;;;;;4986060;28;20946;-81
2023/09/26 06:09:11;;;;;;;20.23;15.68;;;;;;;;;;4982137;28;20031;-80
2023/09/26 06:11:36;;;;;;;20.58;16.85;;;;;;;;;;4980648;28;20518;-80
2023/09/26 06:14:02;;;;;;;23.50;16.95;;;;;;;;;;4985913;28;20041;-80
2023/09/26 06:16:28;;;;;;;21.83;18.23;;;;;;;;;;4974019;28;20038;-80
2023/09/26 06:18:54;;;;;;;23.48;18.23;;;;;;;;;;4998858;28;20040;-80
2023/09/26 06:21:20;;;;;;;23.07;17.67;;;;;;;;;;4984470;28;20570;-79
2023/09/26 06:23:48;;;;;;;23.67;18.90;;;;;;;;;;4974344;28;20114;-80
2023/09/26 06:26:13;;;;;;;;;;;;;;;;;;4968598;28;20046;-80
2023/09/26 06:28:39;;;;;;;27.58;18.90;;;;;;;;;;4988064;28;20445;-80
2023/09/26 06:31:05;;;;;;;27.50;18.55;;;;;;;;;;4984877;28;20100;-80
2023/09/26 06:33:31;;;;;;;27.33;19.77;;;;;;;;;;4966945;28;20062;-80
2023/09/26 06:35:56;;;;;;;22.90;17.48;;;;;;;;;;5001761;28;20323;-81
2023/09/26 06:38:22;;;;;;;25.27;18.33;;;;;;;;;;4984749;28;20126;-79
2023/09/26 06:40:47;;;;;;;23.38;17.67;;;;;;;;;;4991632;28;20037;-80
2023/09/26 06:43:13;;;;;;;20.60;16.05;;;;;;;;;;4973133;28;20042;-80
2023/09/26 06:45:39;;;;;;;21.88;16.58;;;;;;;;;;4971922;28;21335;-80
2023/09/26 06:48:06;;;;;;;19.92;15.63;;;;;;;;;;4982784;28;20045;-80
2023/09/26 06:50:32;;;;;;;19.60;16.20;;;;;;;;;;4985744;28;20035;-80
2023/09/26 06:52:57;;;;;;;21.20;16.67;;;;;;;;;;4987087;28;20147;-80
2023/09/26 06:55:23;;;;;;;21.05;15.88;;;;;;;;;;4985782;28;20105;-80
2023/09/26 06:57:48;;;;;;;22.60;15.60;;;;;;;;;;4986522;28;20042;-81
2023/09/26 07:00:16;;;;;;;20.15;15.73;;;;;;;;;;4991276;28;20509;-80
2023/09/26 07:02:46;;;;;;;19.52;15.23;;;;;;;;;;5004301;28;20131;-80
2023/09/26 07:05:12;;;;;;;20.02;13.88;;;;;;;;;;5008812;28;20111;-80
2023/09/26 07:07:38;;;;;;;19.25;13.75;;;;;;;;;;5002293;28;20045;-80
2023/09/26 07:10:05;;;;;;;16.77;14.65;;;;;;;;;;4995038;28;20126;-79
2023/09/26 07:12:30;;;;;;;17.02;12.82;;;;;;;;;;5006702;28;20120;-79
2023/09/26 07:14:56;;;;;;;17.15;13.27;;;;;;;;;;4981870;28;20544;-80
2023/09/26 07:17:22;;;;;;;17.20;13.85;;;;;;;;;;5007038;28;20164;-81
2023/09/26 07:19:49;;;;;;;21.08;13.40;;;;;;;;;;4994807;28;20026;-80
2023/09/26 07:22:14;;;;;;;18.48;13.82;;;;;;;;;;5006383;28;20038;-80
2023/09/26 07:24:40;;;;;;;16.55;12.90;;;;;;;;;;5007924;28;20118;-80
2023/09/26 07:27:07;;;;;;;15.85;12.52;;;;;;;;;;5002732;28;20057;-81
2023/09/26 07:29:32;;;;;;;14.55;11.80;;;;;;;;;;4989808;28;20025;-80
2023/09/26 07:31:58;;;;;;;13.77;11.63;;;;;;;;;;4993527;28;20040;-79
2023/09/26 07:34:23;;;;;;;17.27;11.77;;;;;;;;;;5004413;28;20038;-80
2023/09/26 07:36:48;;;;;;;15.88;11.25;;;;;;;;;;4987981;28;20332;-80
2023/09/26 07:39:17;;;;;;;16.02;11.00;;;;;;;;;;5006363;28;20049;-80
2023/09/26 07:41:43;;;;;;;15.73;12.02;;;;;;;;;;5006529;28;20050;-80
2023/09/26 07:44:11;;;;;;;15.27;10.73;;;;;;;;;;4988714;28;20435;-80
2023/09/26 07:46:36;;;;;;;17.75;11.68;;;;;;;;;;4999591;28;20042;-80
2023/09/26 07:49:02;;;;;;;14.68;11.10;;;;;;;;;;4996520;28;20044;-81
2023/09/26 07:51:27;;;;;;;15.18;10.82;;;;;;;;;;5007801;28;20045;-80
2023/09/26 07:53:52;;;;;;;16.98;10.70;;;;;;;;;;5007442;28;20049;-80
2023/09/26 07:56:18;;;;;;;15.70;10.13;;;;;;;;;;4990738;28;20176;-80
2023/09/26 07:58:46;;;;;;;12.85;10.30;;;;;;;;;;5012263;28;20626;-81
2023/09/26 08:01:11;;;;;;;15.40;10.63;;;;;;;;;;4985435;28;20083;-81
2023/09/26 08:03:41;;;;;;;15.70;10.75;;;;;;;;;;5006525;28;20449;-81
2023/09/26 08:06:07;;;;;;;13.40;10.00;;;;;;;;;;4987790;28;20046;-81
2023/09/26 08:08:34;;;;;;;12.93;9.68;;;;;;;;;;5008374;28;20033;-81
2023/09/26 08:11:08;;;;;;;13.82;10.82;;;;;;;;;;4990877;28;20551;-80
2023/09/26 08:13:34;;;;;;;12.73;9.98;;;;;;;;;;5005173;28;20033;-81
2023/09/26 08:16:00;;;;;;;12.90;9.60;;;;;;;;;;5007486;28;20096;-80
2023/09/26 08:18:25;;;;;;;12.20;9.02;;;;;;;;;;4997421;28;20030;-81
2023/09/26 08:20:55;;;;;;;12.98;9.88;;;;;;;;;;5004203;28;20099;-80
2023/09/26 08:23:21;;;;;;;17.55;9.48;;;;;;;;;;5003031;28;20061;-81
2023/09/26 08:25:47;;;;;;;12.23;9.32;;;;;;;;;;5000013;28;20037;-81
2023/09/26 08:28:12;;;;;;;13.25;9.52;;;;;;;;;;5002691;28;20038;-80
2023/09/26 08:30:38;;;;;;;11.32;9.20;;;;;;;;;;4983639;28;20026;-80
2023/09/26 08:33:03;;;;;;;11.40;9.50;;;;;;;;;;4999042;28;20112;-79
2023/09/26 08:35:31;;;;;;;14.98;8.70;;;;;;;;;;4985717;28;20433;-80
2023/09/26 08:37:56;;;;;;;13.73;9.77;;;;;;;;;;4990036;28;20027;-81
2023/09/26 08:40:24;;;;;;;14.55;9.85;;;;;;;;;;4987645;28;20088;-80
2023/09/26 08:42:52;;;;;;;11.95;9.50;;;;;;;;;;5006265;28;20497;-79
2023/09/26 08:45:17;;;;;;;14.00;9.77;;;;;;;;;;4988125;28;20126;-80
2023/09/26 08:47:43;;;;;;;13.48;10.25;;;;;;;;;;4985422;28;20046;-80
2023/09/26 08:50:09;;;;;;;13.70;9.80;;;;;;;;;;4990583;28;20030;-80
2023/09/26 08:52:35;;;;;;;11.20;9.13;;;;;;;;;;4987128;28;20508;-80
2023/09/26 08:55:00;;;;;;;14.65;9.75;;;;;;;;;;5003198;28;20033;-81
2023/09/26 08:57:25;;;;;;;13.63;9.38;;;;;;;;;;4983274;28;20060;-81
2023/09/26 08:59:51;;;;;;;12.90;9.90;;;;;;;;;;4989661;28;20067;-80
2023/09/26 09:02:17;;;;;;;12.07;9.40;;;;;;;;;;4985999;28;20068;-80
2023/09/26 09:04:43;;;;;;;13.52;9.07;;;;;;;;;;5006222;28;20042;-80
2023/09/26 09:07:10;;;;;;;12.45;9.30;;;;;;;;;;4986677;28;20038;-80
2023/09/26 09:09:36;;;;;;;11.50;9.15;;;;;;;;;;4991945;28;20037;-80
2023/09/26 09:12:02;;;;;;;10.70;8.82;;;;;;;;;;4972879;28;20038;-79
2023/09/26 09:14:34;;;;;;;10.43;8.32;;;;;;;;;;4986890;28;20054;-79
2023/09/26 09:16:59;;;;;;;10.98;8.65;;;;;;;;;;4992318;28;20100;-80
2023/09/26 09:19:57;;;;;;;11.65;9.13;;;;;;;;;;4986503;28;20082;-80
2023/09/26 09:22:23;;;;;;;11.40;8.43;;;;;;;;;;4950822;28;20347;-80
2023/09/26 09:24:56;;;;;;;12.10;7.70;;;;;;;;;;4953932;28;20505;-80
2023/09/26 09:27:42;;;;;;;11.80;8.70;;;;;;;;;;4964966;28;20118;-81
2023/09/26 09:30:09;;;;;;;12.85;9.10;;;;;;;;;;4960201;28;20520;-80
2023/09/26 09:32:35;;;;;;;11.85;9.30;;;;;;;;;;4957242;28;20968;-80
2023/09/26 09:35:04;;;;;;;12.38;9.02;;;;;;;;;;4961533;28;20038;-80
2023/09/26 09:37:31;;;;;;;10.32;9.05;;;;;;;;;;4975123;28;20398;-81
2023/09/26 09:39:57;;;;;;;11.55;8.93;;;;;;;;;;4961013;28;20061;-81
2023/09/26 09:42:23;;;;;;;12.70;9.80;;;;;;;;;;4966447;28;20423;-81
2023/09/26 09:44:49;;;;;;;15.18;10.02;;;;;;;;;;4985720;28;20278;-81
2023/09/26 09:47:21;;;;;;;11.60;9.43;;;;;;;;;;4957898;28;20046;-80
2023/09/26 09:49:48;;;;;;;12.48;8.70;;;;;;;;;;4971482;28;20058;-83
2023/09/26 09:52:36;;;;;;;12.88;8.20;;;;;;;;;;4964881;28;20039;-80
2023/09/26 09:55:04;;;;;;;13.52;8.32;;;;;;;;;;4913130;28;20126;-81
2023/09/26 09:57:33;;;;;;;10.45;8.05;;;;;;;;;;4927803;29;20135;-81
2023/09/26 09:59:59;;;;;;;9.65;7.15;;;;;;;;;;4896939;29;20473;-80
2023/09/26 10:02:28;;;;;;;10.80;7.43;;;;;;;;;;4935782;29;20047;-78
2023/09/26 10:04:55;;;;;;;10.77;7.90;;;;;;;;;;4916641;29;20610;-80
2023/09/26 10:07:25;;;;;;;9.50;7.55;;;;;;;;;;4922395;29;20071;-79
2023/09/26 10:09:51;;;;;;;11.30;7.95;;;;;;;;;;4916780;29;20123;-80
2023/09/26 10:12:16;;;;;;;10.07;7.22;;;;;;;;;;4918019;29;20207;-79
2023/09/26 10:14:42;;;;;;;9.75;7.05;;;;;;;;;;4899305;29;20071;-80
2023/09/26 10:17:07;;;;;;;10.82;6.93;;;;;;;;;;4935938;28;20050;-79
2023/09/26 10:19:33;;;;;;;8.77;6.65;;;;;;;;;;4916098;28;20043;-80
2023/09/26 10:22:18;;;;;;;9.40;6.15;;;;;;;;;;4923976;28;20115;-80
2023/09/26 10:24:54;;;;;;;8.10;5.97;;;;;;;;;;4951369;28;20031;-80
2023/09/26 10:27:24;;;;;;;8.85;6.25;;;;;;;;;;4935943;28;20046;-79
2023/09/26 10:29:52;;;;;;;10.00;6.25;;;;;;;;;;4950565;28;20131;-79
2023/09/26 10:32:43;;;;;;;9.50;5.60;;;;;;;;;;4967372;28;20031;-79
2023/09/26 10:35:14;;;;;;;8.38;6.15;;;;;;;;;;4931669;28;20093;-79
2023/09/26 10:37:44;;;;;;;8.45;5.50;;;;;;;;;;4979321;28;20695;-79
2023/09/26 10:40:16;;;;;;;10.82;6.65;;;;;;;;;;4990932;28;20057;-79
2023/09/26 10:42:43;;;;;;;9.50;6.28;;;;;;;;;;4996515;28;20398;-80
2023/09/26 10:45:09;;;;;;;8.50;5.28;;;;;;;;;;4988524;28;20042;-79
2023/09/26 10:47:37;;;;;;;6.83;5.13;;;;;;;;;;4998512;28;20046;-80
2023/09/26 10:50:08;;;;;;;7.45;5.38;;;;;;;;;;4978777;28;20298;-80
2023/09/26 10:52:34;;;;;;;32.20;6.40;;;;;;;;;;4976656;28;20498;-80
2023/09/26 10:54:59;;;;;;;8.10;4.93;;;;;;;;;;4978976;28;20379;-80
2023/09/26 10:57:25;;;;;;;9.15;5.40;;;;;;;;;;4979983;28;20036;-80
2023/09/26 10:59:51;;;;;;;7.18;4.85;;;;;;;;;;4994454;28;20044;-80
2023/09/26 11:02:16;;;;;;;10.15;5.20;;;;;;;;;;4972262;28;20026;-80
2023/09/26 11:04:42;;;;;;;7.95;5.38;;;;;;;;;;4963040;28;20528;-80
2023/09/26 11:07:08;;;;;;;7.57;4.78;;;;;;;;;;4991452;28;20422;-80
2023/09/26 11:09:40;;;;;;;7.53;4.90;;;;;;;;;;4985871;28;20057;-80
2023/09/26 11:12:06;;;;;;;6.15;4.50;;;;;;;;;;4969401;28;20042;-81
2023/09/26 11:14:32;;;;;;;9.02;5.38;;;;;;;;;;4989942;28;20030;-79
2023/09/26 11:16:57;;;;;;;5.50;3.72;;;;;;;;;;4996603;28;20037;-80
2023/09/26 11:19:25;;;;;;;5.82;3.80;;;;;;;;;;4984001;28;20038;-79
2023/09/26 11:21:52;;;;;;;12.13;3.53;;;;;;;;;;4983366;28;20031;-80
2023/09/26 11:24:22;;;;;;;6.30;3.40;;;;;;;;;;4963769;28;20030;-79
2023/09/26 11:26:48;;;;;;;5.72;3.13;;;;;;;;;;4986130;28;20049;-79
2023/09/26 11:29:16;;;;;;;4.63;2.70;;;;;;;;;;4972632;28;20034;-80
2023/09/26 11:31:43;;;;;;;5.90;3.03;;;;;;;;;;4984360;28;20554;-81
2023/09/26 11:34:09;;;;;;;6.75;2.83;;;;;;;;;;4989440;28;20375;-81
2023/09/26 11:36:34;;;;;;;7.00;3.20;;;;;;;;;;4986854;28;20037;-80
2023/09/26 11:39:00;;;;;;;4.63;2.93;;;;;;;;;;4968226;28;20490;-80
2023/09/26 11:41:25;;;;;;;6.17;2.80;;;;;;;;;;4988191;28;20041;-80
2023/09/26 11:43:52;;;;;;;4.83;2.60;;;;;;;;;;4954568;28;20046;-81
2023/09/26 11:46:18;;;;;;;5.47;2.95;;;;;;;;;;4950269;28;20050;-80
2023/09/26 11:48:48;;;;;;;5.85;2.70;;;;;;;;;;4973961;28;20754;-80
2023/09/26 11:51:14;;;;;;;5.63;2.50;;;;;;;;;;4977297;28;20038;-80
2023/09/26 11:53:40;;;;;;;7.00;2.90;;;;;;;;;;5005178;28;20030;-80
2023/09/26 11:56:08;;;;;;;5.55;2.85;;;;;;;;;;4982235;28;20125;-80
2023/09/26 11:58:42;;;;;;;7.70;3.08;;;;;;;;;;4962644;28;20058;-81
2023/09/26 12:01:07;;;;;;;7.20;3.33;;;;;;;;;;4959696;28;20034;-80
2023/09/26 12:03:33;;;;;;;8.13;3.70;;;;;;;;;;4976586;28;20442;-80
2023/09/26 12:05:58;;;;;;;7.38;3.50;;;;;;;;;;4969904;28;20037;-80
2023/09/26 12:08:26;;;;;;;6.38;3.60;;;;;;;;;;4987862;28;20068;-79
2023/09/26 12:10:52;;;;;;;7.63;3.95;;;;;;;;;;4968089;28;20037;-81
2023/09/26 12:13:17;;;;;;;5.75;3.80;;;;;;;;;;4957096;28;20042;-80
2023/09/26 12:15:43;;;;;;;6.30;3.53;;;;;;;;;;4974573;28;20315;-80
2023/09/26 12:18:09;;;;;;;5.97;3.80;;;;;;;;;;4958402;28;20042;-78
2023/09/26 12:20:35;;;;;;;7.57;3.63;;;;;;;;;;4959796;28;21662;-80
2023/09/26 12:23:02;;;;;;;7.90;3.65;;;;;;;;;;4970570;28;20121;-80
2023/09/26 12:25:30;;;;;;;8.83;5.27;;;;;;;;;;4961069;28;20029;-80
2023/09/26 12:27:55;;;;;;;8.60;3.95;;;;;;;;;;4971608;28;20146;-80
2023/09/26 12:30:21;;;;;;;8.25;3.95;;;;;;;;;;4969072;28;20038;-80
2023/09/26 12:32:47;;;;;;;5.38;3.50;;;;;;;;;;4964660;28;20372;-80
2023/09/26 12:35:13;;;;;;;7.35;4.00;;;;;;;;;;4988218;28;20394;-79
2023/09/26 12:37:38;;;;;;;9.50;3.75;;;;;;;;;;4959860;28;20034;-81
2023/09/26 12:40:13;;;;;;;6.63;3.50;;;;;;;;;;4955536;28;20035;-80
2023/09/26 12:42:40;;;;;;;6.75;3.40;;;;;;;;;;4950422;28;20076;-80
2023/09/26 12:45:09;;;;;;;5.75;3.40;;;;;;;;;;4946988;28;20526;-80
2023/09/26 12:47:35;;;;;;;6.45;3.53;;;;;;;;;;4967197;28;20036;-80
2023/09/26 12:50:04;;;;;;;7.50;3.55;;;;;;;;;;4950528;28;20038;-81
2023/09/26 12:52:31;;;;;;;11.38;3.72;;;;;;;;;;4969790;28;20091;-81
2023/09/26 12:54:57;;;;;;;6.70;3.47;;;;;;;;;;4971928;28;20034;-80
2023/09/26 12:57:25;;;;;;;6.88;4.05;;;;;;;;;;4956483;28;20280;-80
2023/09/26 12:59:53;;;;;;;6.75;3.72;;;;;;;;;;4969281;28;20027;-80
2023/09/26 13:02:19;;;;;;;6.50;3.60;;;;;;;;;;4949340;28;20097;-80
2023/09/26 13:04:44;;;;;;;6.55;3.33;;;;;;;;;;4968715;28;20052;-80
2023/09/26 13:07:12;;;;;;;7.53;3.40;;;;;;;;;;4962221;28;20034;-80
2023/09/26 13:09:37;;;;;;;7.22;3.53;;;;;;;;;;4970269;28;20035;-80
2023/09/26 13:12:03;;;;;;;5.78;2.70;;;;;;;;;;4948088;28;21083;-80
2023/09/26 13:14:29;;;;;;;7.03;3.00;;;;;;;;;;4971879;28;20486;-80
2023/09/26 13:16:54;;;;;;;9.25;3.08;;;;;;;;;;4948452;28;20073;-79
2023/09/26 13:19:22;;;;;;;5.68;3.20;;;;;;;;;;4972513;28;20038;-79
2023/09/26 13:21:48;;;;;;;;;;;;;;;;;;4953389;28;20445;-79
2023/09/26 13:24:13;;;;;;;7.17;3.40;;;;;;;;;;4981897;28;19925;-79
2023/09/26 13:26:40;;;;;;;5.82;3.42;;;;;;;;;;4953358;28;20635;-80
2023/09/26 13:29:06;;;;;;;5.90;3.63;;;;;;;;;;4969605;28;20615;-80
2023/09/26 13:31:32;;;;;;;6.10;3.67;;;;;;;;;;4966724;28;20686;-80
2023/09/26 13:34:06;;;;;;;5.15;3.08;;;;;;;;;;4964306;28;20042;-80
2023/09/26 13:36:31;;;;;;;7.13;3.20;;;;;;;;;;4970496;28;20046;-80
2023/09/26 13:38:59;;;;;;;6.78;3.00;;;;;;;;;;4944857;28;20471;-81
2023/09/26 13:41:25;;;;;;;6.60;3.10;;;;;;;;;;4961548;28;20187;-81
2023/09/26 13:43:50;;;;;;;6.78;3.60;;;;;;;;;;4969199;28;20140;-81
2023/09/26 13:46:16;;;;;;;7.15;3.20;;;;;;;;;;4956604;28;20033;-81
2023/09/26 13:48:41;;;;;;;5.40;2.97;;;;;;;;;;4971354;28;20034;-79
2023/09/26 13:51:07;;;;;;;7.28;3.40;;;;;;;;;;4969415;28;20109;-81
2023/09/26 13:53:33;;;;;;;8.55;3.50;;;;;;;;;;4951794;28;20034;-81
2023/09/26 13:55:58;;;;;;;6.13;3.47;;;;;;;;;;4967114;28;20089;-81
2023/09/26 13:58:24;;;;;;;6.78;3.55;;;;;;;;;;4958496;28;20038;-80
2023/09/26 14:00:49;;;;;;;6.30;3.40;;;;;;;;;;4969858;28;20573;-81
2023/09/26 14:03:18;;;;;;;7.65;3.50;;;;;;;;;;4987001;28;20038;-81
2023/09/26 14:05:43;;;;;;;5.50;3.45;;;;;;;;;;4978504;28;20034;-82
2023/09/26 14:08:08;;;;;;;7.57;3.63;;;;;;;;;;5000091;28;20417;-81
2023/09/26 14:10:34;;;;;;;7.15;3.75;;;;;;;;;;4998276;28;20068;-81
2023/09/26 14:12:59;;;;;;;6.75;3.72;;;;;;;;;;4975001;28;20030;-81
2023/09/26 14:15:27;;;;;;;5.78;3.83;;;;;;;;;;4977061;28;20036;-81
2023/09/26 14:17:52;;;;;;;;;;;;;;;;;;4984096;28;20502;-80
2023/09/26 14:20:17;;;;;;;5.88;3.75;;;;;;;;;;4989073;28;19920;-80
2023/09/26 14:22:43;;;;;;;5.93;3.88;;;;;;;;;;4986913;28;20038;-80
2023/09/26 14:25:09;;;;;;;8.45;3.83;;;;;;;;;;4973629;28;20401;-81